createdAt,value
2022-07-31T00:00:27.123Z,98989.41
2022-07-31T00:02:54.311Z,98995.97
2022-07-31T00:05:21.602Z,98978.53
2022-07-31T00:07:49.014Z,98986.13
2022-07-31T00:10:16.159Z,98986.81
2022-07-31T00:12:43.488Z,98980.34
2022-07-31T00:15:12.451Z,98980.72
2022-07-31T00:17:42.042Z,98978.94
2022-07-31T00:20:14.696Z,98984.78
2022-07-31T00:22:43.531Z,98978.84
2022-07-31T00:25:12.850Z,98978.25
2022-07-31T00:27:41.411Z,98982.69
2022-07-31T00:30:09.463Z,98980.16
2022-07-31T00:32:36.357Z,98976.38
2022-07-31T00:35:04.023Z,98978.13
2022-07-31T00:37:31.024Z,98975.56
2022-07-31T00:39:58.477Z,98977.59
2022-07-31T00:42:26.421Z,98973.97
2022-07-31T00:44:53.401Z,98977.38
2022-07-31T00:47:25.551Z,98978.09
2022-07-31T00:49:53.146Z,98973.47
2022-07-31T00:52:20.950Z,98984.06
2022-07-31T00:54:47.842Z,98973.75
2022-07-31T00:57:15.368Z,98967.97
2022-07-31T00:59:43.687Z,98970.56
2022-07-31T01:02:11.111Z,98967.63
2022-07-31T01:04:38.036Z,98978.72
2022-07-31T01:07:09.245Z,98972.44
2022-07-31T01:09:36.525Z,98981.91
2022-07-31T01:12:09.818Z,98974.13
2022-07-31T01:14:45.954Z,98982.81
2022-07-31T01:17:15.367Z,98979.28
2022-07-31T01:19:48.570Z,98978.56
2022-07-31T01:22:42.683Z,98976.34
2022-07-31T01:25:47.455Z,98978.38
2022-07-31T01:28:59.045Z,98979.47
2022-07-31T01:31:52.422Z,98978.47
2022-07-31T01:34:42.539Z,98973.50
2022-07-31T01:37:27.274Z,98977.97
2022-07-31T01:40:08.486Z,98977.78
2022-07-31T01:42:39.478Z,98978.31
2022-07-31T01:45:10.780Z,98975.56
2022-07-31T01:47:40.085Z,98979.44
2022-07-31T01:50:09.176Z,98982.19
2022-07-31T01:53:01.000Z,98983.09
2022-07-31T01:55:30.845Z,98985.31
2022-07-31T01:58:20.978Z,98981.56
2022-07-31T02:00:50.978Z,98983.94
2022-07-31T02:03:19.616Z,98979.16
2022-07-31T02:06:07.145Z,98982.34
2022-07-31T02:08:35.883Z,98974.31
2022-07-31T02:11:03.688Z,98970.75
2022-07-31T02:13:32.373Z,98972.34
2022-07-31T02:16:01.051Z,98979.25
2022-07-31T02:18:34.765Z,98971.53
2022-07-31T02:21:02.091Z,98978.09
2022-07-31T02:23:28.977Z,98969.97
2022-07-31T02:25:56.843Z,98967.34
2022-07-31T02:28:26.136Z,98959.31
2022-07-31T02:30:54.303Z,98962.94
2022-07-31T02:33:25.644Z,98960.66
2022-07-31T02:35:57.483Z,98956.75
2022-07-31T02:38:28.141Z,98957.03
2022-07-31T02:41:01.998Z,98958.88
2022-07-31T02:43:31.732Z,98962.44
2022-07-31T02:45:59.955Z,98965.00
2022-07-31T02:48:28.127Z,98965.94
2022-07-31T02:50:56.154Z,98964.88
2022-07-31T02:53:23.428Z,98969.88
2022-07-31T02:55:52.185Z,98968.94
2022-07-31T02:58:19.826Z,98964.94
2022-07-31T03:00:46.984Z,98964.09
2022-07-31T03:03:13.958Z,98964.50
2022-07-31T03:05:40.839Z,98960.06
2022-07-31T03:08:07.684Z,98958.00
2022-07-31T03:10:34.694Z,98949.22
2022-07-31T03:13:05.306Z,98954.84
2022-07-31T03:15:34.418Z,98955.69
2022-07-31T03:18:01.791Z,98949.03
2022-07-31T03:20:39.750Z,98953.28
2022-07-31T03:23:07.325Z,98944.13
2022-07-31T03:25:34.374Z,98947.09
2022-07-31T03:28:01.272Z,98946.84
2022-07-31T03:30:28.403Z,98943.66
2022-07-31T03:32:57.195Z,98946.53
2022-07-31T03:35:25.258Z,98947.13
2022-07-31T03:37:52.498Z,98951.72
2022-07-31T03:40:19.813Z,98949.88
2022-07-31T03:42:49.800Z,98948.69
2022-07-31T03:45:17.834Z,98957.38
2022-07-31T03:47:45.154Z,98959.91
2022-07-31T03:50:14.003Z,98954.88
2022-07-31T03:52:41.109Z,98954.63
2022-07-31T03:55:08.965Z,98948.94
2022-07-31T03:57:38.420Z,98955.34
2022-07-31T04:00:09.742Z,98954.34
2022-07-31T04:02:44.945Z,98958.75
2022-07-31T04:05:12.056Z,98954.22
2022-07-31T04:07:38.956Z,98961.44
2022-07-31T04:10:06.767Z,98960.06
2022-07-31T04:12:33.787Z,98960.06
2022-07-31T04:15:00.694Z,98957.84
2022-07-31T04:17:27.552Z,98953.50
2022-07-31T04:19:58.048Z,98966.22
2022-07-31T04:22:25.705Z,98958.31
2022-07-31T04:24:52.659Z,98958.53
2022-07-31T04:27:19.562Z,98958.75
2022-07-31T04:29:46.942Z,98965.56
2022-07-31T04:32:13.882Z,98959.81
2022-07-31T04:34:42.188Z,98964.72
2022-07-31T04:37:09.061Z,98963.06
2022-07-31T04:39:36.926Z,98958.63
2022-07-31T04:42:05.017Z,98966.56
2022-07-31T04:44:34.092Z,98973.88
2022-07-31T04:47:04.201Z,98964.00
2022-07-31T04:49:33.191Z,98966.75
2022-07-31T04:52:01.679Z,98976.59
2022-07-31T04:54:29.837Z,98969.25
2022-07-31T04:56:56.879Z,98966.28
2022-07-31T04:59:24.436Z,98977.91
2022-07-31T05:02:11.325Z,98970.16
2022-07-31T05:04:39.355Z,98973.59
2022-07-31T05:07:06.223Z,98975.00
2022-07-31T05:09:36.306Z,98974.75
2022-07-31T05:12:04.785Z,98974.63
2022-07-31T05:14:31.907Z,98973.78
2022-07-31T05:16:58.861Z,98978.94
2022-07-31T05:19:29.750Z,98977.69
2022-07-31T05:22:02.434Z,98975.34
2022-07-31T05:24:33.313Z,98978.09
2022-07-31T05:27:03.076Z,98963.19
2022-07-31T05:29:31.086Z,98968.44
2022-07-31T05:31:59.697Z,98979.00
2022-07-31T05:34:31.246Z,98967.03
2022-07-31T05:37:01.656Z,98970.53
2022-07-31T05:39:30.250Z,98965.84
2022-07-31T05:41:57.528Z,98969.13
2022-07-31T05:44:24.627Z,98965.63
2022-07-31T05:49:19.902Z,98962.88
2022-07-31T05:51:47.247Z,98968.59
2022-07-31T05:54:14.489Z,98966.94
2022-07-31T05:56:41.591Z,98965.44
2022-07-31T05:59:09.630Z,98972.91
2022-07-31T06:01:37.305Z,98961.81
2022-07-31T06:04:04.678Z,98966.41
2022-07-31T06:06:31.675Z,98965.44
2022-07-31T06:09:03.797Z,98970.16
2022-07-31T06:11:31.899Z,98971.66
2022-07-31T06:13:58.953Z,98978.22
2022-07-31T06:16:25.850Z,98971.81
2022-07-31T06:18:52.789Z,98981.06
2022-07-31T06:23:45.577Z,98976.34
2022-07-31T06:26:12.704Z,98974.91
2022-07-31T06:28:47.977Z,98986.34
2022-07-31T06:31:21.976Z,98982.22
2022-07-31T06:33:50.135Z,98983.19
2022-07-31T06:36:19.749Z,98980.44
2022-07-31T06:38:47.269Z,98983.19
2022-07-31T06:41:32.716Z,98979.84
2022-07-31T06:43:59.667Z,98979.63
2022-07-31T06:46:26.577Z,98979.06
2022-07-31T06:48:53.475Z,98971.16
2022-07-31T06:51:30.839Z,98976.81
2022-07-31T06:54:00.267Z,98976.09
2022-07-31T06:56:28.077Z,98981.47
2022-07-31T06:58:55.274Z,98980.16
2022-07-31T07:01:22.294Z,98980.25
2022-07-31T07:03:49.307Z,98971.31
2022-07-31T07:06:16.526Z,98975.38
2022-07-31T07:08:43.461Z,98968.09
2022-07-31T07:11:12.425Z,98966.75
2022-07-31T07:13:45.299Z,98970.94
2022-07-31T07:16:14.732Z,98962.06
2022-07-31T07:18:43.119Z,98969.31
2022-07-31T07:21:10.745Z,98958.50
2022-07-31T07:23:37.855Z,98970.06
2022-07-31T07:26:05.811Z,98961.16
2022-07-31T07:28:34.067Z,98970.50
2022-07-31T07:31:01.462Z,98964.31
2022-07-31T07:33:40.952Z,98974.72
2022-07-31T07:36:23.002Z,98974.47
2022-07-31T07:38:55.628Z,98968.84
2022-07-31T07:41:25.123Z,98967.66
2022-07-31T07:43:53.018Z,98963.91
2022-07-31T07:46:22.739Z,98958.72
2022-07-31T07:48:50.919Z,98963.59
2022-07-31T07:51:19.441Z,98962.63
2022-07-31T07:53:46.379Z,98962.78
2022-07-31T07:56:13.182Z,98957.88
2022-07-31T07:58:40.819Z,98956.09
2022-07-31T08:01:08.071Z,98945.53
2022-07-31T08:03:50.247Z,98945.63
2022-07-31T08:06:21.452Z,98952.13
2022-07-31T08:08:48.399Z,98943.88
2022-07-31T08:11:17.052Z,98949.94
2022-07-31T08:13:50.113Z,98949.66
2022-07-31T08:16:19.035Z,98949.28
2022-07-31T08:18:46.135Z,98935.84
2022-07-31T08:21:13.360Z,98937.03
2022-07-31T08:23:40.535Z,98937.38
2022-07-31T08:26:10.021Z,98938.94
2022-07-31T08:28:38.343Z,98940.06
2022-07-31T08:31:05.773Z,98924.94
2022-07-31T08:33:35.603Z,98931.66
2022-07-31T08:36:04.558Z,98930.34
2022-07-31T08:38:32.182Z,98931.78
2022-07-31T08:40:59.687Z,98933.56
2022-07-31T08:44:00.503Z,98926.66
2022-07-31T08:46:16.578Z,98922.06
2022-07-31T08:48:45.920Z,98925.44
2022-07-31T08:51:15.593Z,98928.16
2022-07-31T08:53:44.679Z,98923.19
2022-07-31T08:56:12.819Z,98925.22
2022-07-31T08:58:40.227Z,98920.56
2022-07-31T09:01:12.291Z,98918.59
2022-07-31T09:03:39.337Z,98916.19
2022-07-31T09:06:06.976Z,98912.09
2022-07-31T09:08:36.088Z,98909.81
2022-07-31T09:11:05.985Z,98908.78
2022-07-31T09:13:34.952Z,98913.03
2022-07-31T09:16:03.490Z,98921.16
2022-07-31T09:18:31.646Z,98913.53
2022-07-31T09:21:02.236Z,98914.78
2022-07-31T09:23:32.200Z,98920.75
2022-07-31T09:26:05.793Z,98914.09
2022-07-31T09:28:43.926Z,98909.34
2022-07-31T09:31:13.908Z,98912.47
2022-07-31T09:33:45.948Z,98909.28
2022-07-31T09:36:14.997Z,98897.59
2022-07-31T09:38:44.381Z,98899.88
2022-07-31T09:41:55.469Z,98882.03
2022-07-31T09:44:09.885Z,98904.28
2022-07-31T09:46:46.884Z,98898.41
2022-07-31T09:49:14.651Z,98891.91
2022-07-31T09:51:49.478Z,98899.00
2022-07-31T09:54:31.338Z,98898.50
2022-07-31T09:57:09.834Z,98895.44
2022-07-31T09:59:36.666Z,98896.38
2022-07-31T10:02:08.810Z,98887.50
2022-07-31T10:04:41.407Z,98882.66
2022-07-31T10:07:08.812Z,98890.00
2022-07-31T10:09:57.876Z,98890.50
2022-07-31T10:12:30.809Z,98890.28
2022-07-31T10:15:09.298Z,98887.34
2022-07-31T10:17:41.041Z,98890.44
2022-07-31T10:20:13.517Z,98899.00
2022-07-31T10:22:46.468Z,98884.06
2022-07-31T10:25:29.535Z,98879.56
2022-07-31T10:27:57.368Z,98878.59
2022-07-31T10:30:28.330Z,98876.75
2022-07-31T10:32:58.652Z,98875.16
2022-07-31T10:36:10.765Z,98881.47
2022-07-31T10:38:54.838Z,98885.56
2022-07-31T10:41:37.861Z,98876.69
2022-07-31T10:44:22.568Z,98867.91
2022-07-31T10:46:50.409Z,98870.28
2022-07-31T10:49:17.462Z,98855.56
2022-07-31T10:51:51.813Z,98865.59
2022-07-31T10:54:18.721Z,98855.44
2022-07-31T10:56:47.581Z,98850.94
2022-07-31T10:59:14.694Z,98837.53
2022-07-31T11:01:55.018Z,98834.66
2022-07-31T11:04:32.287Z,98834.97
2022-07-31T11:07:00.092Z,98843.47
2022-07-31T11:09:29.591Z,98848.44
2022-07-31T11:11:56.647Z,98854.31
2022-07-31T11:14:40.690Z,98839.03
2022-07-31T11:17:07.953Z,98838.41
2022-07-31T11:19:43.891Z,98827.47
2022-07-31T11:22:31.968Z,98832.97
2022-07-31T11:25:00.743Z,98830.94
2022-07-31T11:27:34.444Z,98827.81
2022-07-31T11:30:13.498Z,98820.91
2022-07-31T11:32:47.665Z,98817.81
2022-07-31T11:35:29.749Z,98813.75
2022-07-31T11:37:59.100Z,98816.69
2022-07-31T11:40:28.225Z,98809.56
2022-07-31T11:43:24.748Z,98818.09
2022-07-31T11:45:55.087Z,98804.25
2022-07-31T11:48:27.798Z,98814.97
2022-07-31T11:50:54.975Z,98819.19
2022-07-31T11:53:21.931Z,98811.50
2022-07-31T11:55:54.033Z,98804.44
2022-07-31T11:58:22.689Z,98803.78
2022-07-31T12:01:02.753Z,98790.88
2022-07-31T12:03:37.032Z,98784.75
2022-07-31T12:06:06.872Z,98774.38
2022-07-31T12:08:37.746Z,98782.34
2022-07-31T12:11:08.881Z,98797.28
2022-07-31T12:13:38.706Z,98786.41
2022-07-31T12:16:11.309Z,98784.56
2022-07-31T12:19:02.161Z,98788.00
2022-07-31T12:21:38.664Z,98785.41
2022-07-31T12:24:15.120Z,98771.69
2022-07-31T12:26:59.276Z,98771.28
2022-07-31T12:29:39.190Z,98773.63
2022-07-31T12:32:07.966Z,98766.94
2022-07-31T12:34:42.447Z,98766.66
2022-07-31T12:37:22.410Z,98760.50
2022-07-31T12:39:59.725Z,98766.38
2022-07-31T12:42:40.709Z,98756.97
2022-07-31T12:45:18.474Z,98761.94
2022-07-31T12:47:51.350Z,98768.44
2022-07-31T12:50:28.141Z,98754.44
2022-07-31T12:53:00.502Z,98750.59
2022-07-31T12:55:29.507Z,98742.63
2022-07-31T12:57:57.224Z,98747.31
2022-07-31T13:00:26.917Z,98736.00
2022-07-31T13:02:58.325Z,98728.34
2022-07-31T13:05:26.181Z,98728.97
2022-07-31T13:07:53.907Z,98735.28
2022-07-31T13:10:25.041Z,98746.22
2022-07-31T13:12:58.690Z,98726.78
2022-07-31T13:15:32.154Z,98714.31
2022-07-31T13:18:05.089Z,98711.00
2022-07-31T13:20:32.711Z,98712.47
2022-07-31T13:22:59.954Z,98710.66
2022-07-31T13:25:30.311Z,98698.88
2022-07-31T13:27:59.189Z,98705.75
2022-07-31T13:30:27.798Z,98688.09
2022-07-31T13:32:54.841Z,98694.19
2022-07-31T13:35:28.283Z,98689.19
2022-07-31T13:37:56.329Z,98684.31
2022-07-31T13:40:42.278Z,98687.00
2022-07-31T13:43:09.759Z,98684.50
2022-07-31T13:45:37.187Z,98675.47
2022-07-31T13:48:09.559Z,98663.38
2022-07-31T13:50:39.605Z,98670.44
2022-07-31T13:53:07.044Z,98667.81
2022-07-31T13:55:34.378Z,98674.97
2022-07-31T13:58:01.712Z,98674.13
2022-07-31T14:00:30.511Z,98671.91
2022-07-31T14:02:58.384Z,98668.81
2022-07-31T14:05:28.231Z,98670.66
2022-07-31T14:07:56.216Z,98667.13
2022-07-31T14:10:48.517Z,98662.91
2022-07-31T14:13:19.036Z,98658.03
2022-07-31T14:15:47.204Z,98647.03
2022-07-31T14:20:07.183Z,98651.41
2022-07-31T14:22:34.091Z,98663.59
2022-07-31T14:25:01.190Z,98650.75
2022-07-31T14:27:28.172Z,98661.66
2022-07-31T14:29:55.198Z,98654.78
2022-07-31T14:32:22.566Z,98645.59
2022-07-31T14:34:50.559Z,98651.28
2022-07-31T14:37:17.578Z,98643.16
2022-07-31T14:39:44.736Z,98640.81
2022-07-31T14:42:12.423Z,98638.50
2022-07-31T14:44:42.356Z,98629.34
2022-07-31T14:47:11.445Z,98642.72
2022-07-31T14:50:07.810Z,98642.34
2022-07-31T14:52:28.861Z,98628.13
2022-07-31T14:54:58.635Z,98626.06
2022-07-31T14:57:26.449Z,98632.56
2022-07-31T14:59:53.425Z,98621.16
2022-07-31T15:02:22.719Z,98636.78
2022-07-31T15:04:52.026Z,98634.81
2022-07-31T15:07:43.824Z,98635.00
2022-07-31T15:10:11.113Z,98625.34
2022-07-31T15:12:38.296Z,98628.06
2022-07-31T15:15:07.539Z,98630.22
2022-07-31T15:17:37.264Z,98627.34
2022-07-31T15:20:05.556Z,98621.06
2022-07-31T15:22:32.588Z,98617.63
2022-07-31T15:24:59.644Z,98629.38
2022-07-31T15:27:27.035Z,98616.94
2022-07-31T15:30:04.405Z,98608.50
2022-07-31T15:32:39.010Z,98608.25
2022-07-31T15:35:11.317Z,98611.44
2022-07-31T15:37:41.216Z,98606.06
2022-07-31T15:40:15.123Z,98598.59
2022-07-31T15:42:44.998Z,98586.72
2022-07-31T15:45:18.368Z,98610.19
2022-07-31T15:47:47.239Z,98600.06
2022-07-31T15:50:17.336Z,98601.97
2022-07-31T15:52:44.216Z,98601.94
2022-07-31T15:55:11.718Z,98596.41
2022-07-31T15:57:39.181Z,98587.69
2022-07-31T16:00:13.315Z,98581.09
2022-07-31T16:02:42.706Z,98586.28
2022-07-31T16:05:21.526Z,98578.78
2022-07-31T16:08:30.838Z,98577.53
2022-07-31T16:10:45.130Z,98576.50
2022-07-31T16:13:11.923Z,98568.13
2022-07-31T16:15:38.797Z,98572.09
2022-07-31T16:18:05.910Z,98564.22
2022-07-31T16:20:32.962Z,98569.69
2022-07-31T16:23:01.740Z,98574.75
2022-07-31T16:25:31.990Z,98564.88
2022-07-31T16:28:06.083Z,98571.81
2022-07-31T16:30:33.161Z,98558.06
2022-07-31T16:33:00.787Z,98565.66
2022-07-31T16:35:27.860Z,98560.03
2022-07-31T16:37:55.288Z,98553.47
2022-07-31T16:40:31.013Z,98555.34
2022-07-31T16:43:51.095Z,98559.06
2022-07-31T16:45:55.731Z,98557.72
2022-07-31T16:48:23.622Z,98553.00
2022-07-31T16:50:54.048Z,98549.75
2022-07-31T16:54:13.070Z,98552.88
2022-07-31T16:56:42.282Z,98546.94
2022-07-31T16:59:09.878Z,98552.88
2022-07-31T17:01:56.943Z,98548.19
2022-07-31T17:04:25.090Z,98556.81
2022-07-31T17:06:52.130Z,98546.38
2022-07-31T17:09:20.172Z,98552.94
2022-07-31T17:11:56.039Z,98551.38
2022-07-31T17:14:26.452Z,98546.31
2022-07-31T17:16:55.295Z,98546.88
2022-07-31T17:19:35.885Z,98543.06
2022-07-31T17:22:04.674Z,98541.16
2022-07-31T17:24:31.819Z,98541.16
2022-07-31T17:26:59.689Z,98541.69
2022-07-31T17:29:27.572Z,98539.44
2022-07-31T17:31:54.457Z,98557.22
2022-07-31T17:34:21.358Z,98555.81
2022-07-31T17:36:50.290Z,98554.69
2022-07-31T17:39:17.604Z,98552.09
2022-07-31T17:41:44.978Z,98555.41
2022-07-31T17:44:12.119Z,98558.22
2022-07-31T17:46:43.889Z,98562.22
2022-07-31T17:49:20.470Z,98555.06
2022-07-31T17:51:58.665Z,98553.50
2022-07-31T17:54:31.766Z,98557.53
2022-07-31T17:57:05.028Z,98568.38
2022-07-31T17:59:33.035Z,98564.00
2022-07-31T18:02:00.693Z,98574.25
2022-07-31T18:04:31.330Z,98570.84
2022-07-31T18:07:00.394Z,98567.72
2022-07-31T18:09:28.676Z,98571.91
2022-07-31T18:11:57.310Z,98572.44
2022-07-31T18:14:25.218Z,98577.31
2022-07-31T18:16:53.580Z,98573.13
2022-07-31T18:19:23.929Z,98578.72
2022-07-31T18:21:52.358Z,98583.59
2022-07-31T18:24:21.075Z,98585.69
2022-07-31T18:26:49.418Z,98593.38
2022-07-31T18:29:18.030Z,98597.81
2022-07-31T18:31:45.600Z,98592.16
2022-07-31T18:34:13.377Z,98599.38
2022-07-31T18:36:41.028Z,98596.34
2022-07-31T18:39:08.460Z,98595.63
2022-07-31T18:41:35.481Z,98595.69
2022-07-31T18:44:02.358Z,98602.16
2022-07-31T18:46:32.049Z,98597.50
2022-07-31T18:49:00.427Z,98603.94
2022-07-31T18:51:29.459Z,98600.88
2022-07-31T18:53:56.843Z,98604.31
2022-07-31T18:56:25.215Z,98608.03
2022-07-31T18:58:54.453Z,98608.53
2022-07-31T19:01:22.626Z,98614.97
2022-07-31T19:03:50.358Z,98609.84
2022-07-31T19:06:18.373Z,98613.56
2022-07-31T19:08:46.464Z,98606.03
2022-07-31T19:11:13.652Z,98609.78
2022-07-31T19:13:40.716Z,98609.44
2022-07-31T19:16:10.168Z,98626.81
2022-07-31T19:18:40.180Z,98616.16
2022-07-31T19:21:22.687Z,98630.97
2022-07-31T19:23:55.782Z,98637.44
2022-07-31T19:26:22.835Z,98635.75
2022-07-31T19:28:49.814Z,98638.00
2022-07-31T19:31:16.908Z,98647.31
2022-07-31T19:33:43.936Z,98645.09
2022-07-31T19:36:13.420Z,98652.78
2022-07-31T19:38:44.040Z,98658.50
2022-07-31T19:41:12.475Z,98654.97
2022-07-31T19:43:39.377Z,98654.59
2022-07-31T19:46:11.477Z,98660.81
2022-07-31T19:48:46.273Z,98662.16
2022-07-31T19:51:15.891Z,98666.28
2022-07-31T19:53:44.615Z,98667.19
2022-07-31T19:56:19.712Z,98668.81
2022-07-31T19:58:48.751Z,98666.53
2022-07-31T20:01:19.102Z,98671.06
2022-07-31T20:03:46.692Z,98683.88
2022-07-31T20:06:13.880Z,98682.38
2022-07-31T20:08:42.561Z,98679.28
2022-07-31T20:11:10.462Z,98687.63
2022-07-31T20:13:38.604Z,98689.72
2022-07-31T20:16:07.648Z,98687.84
2022-07-31T20:18:34.780Z,98687.94
2022-07-31T20:21:08.596Z,98691.94
2022-07-31T20:23:41.728Z,98696.28
2022-07-31T20:26:12.481Z,98690.75
2022-07-31T20:28:43.994Z,98691.56
2022-07-31T20:31:15.777Z,98695.97
2022-07-31T20:33:56.525Z,98686.88
2022-07-31T20:36:24.381Z,98693.28
2022-07-31T20:38:51.408Z,98690.50
2022-07-31T20:41:18.753Z,98689.41
2022-07-31T20:43:46.895Z,98693.00
2022-07-31T20:46:16.850Z,98689.88
2022-07-31T20:48:45.272Z,98693.84
2022-07-31T20:51:20.427Z,98689.84
2022-07-31T20:53:49.315Z,98689.84
2022-07-31T20:56:17.446Z,98695.81
2022-07-31T20:58:51.383Z,98697.44
2022-07-31T21:01:23.344Z,98701.41
2022-07-31T21:03:51.537Z,98702.59
2022-07-31T21:06:20.902Z,98708.59
2022-07-31T21:08:49.196Z,98711.00
2022-07-31T21:11:16.390Z,98701.13
2022-07-31T21:13:45.858Z,98713.41
2022-07-31T21:16:13.068Z,98701.13
2022-07-31T21:18:43.303Z,98701.13
2022-07-31T21:21:11.390Z,98703.91
2022-07-31T21:23:40.035Z,98704.31
2022-07-31T21:26:11.696Z,98705.88
2022-07-31T21:28:39.833Z,98706.28
2022-07-31T21:31:07.956Z,98711.44
2022-07-31T21:33:36.995Z,98711.44
2022-07-31T21:36:06.104Z,98706.69
2022-07-31T21:38:35.450Z,98707.09
2022-07-31T21:41:03.148Z,98714.59
2022-07-31T21:43:35.269Z,98709.47
2022-07-31T21:46:22.479Z,98719.78
2022-07-31T21:48:52.493Z,98716.59
2022-07-31T21:51:20.265Z,98721.34
2022-07-31T21:53:48.072Z,98719.38
2022-07-31T21:56:16.136Z,98717.38
2022-07-31T21:58:44.632Z,98728.84
2022-07-31T22:01:13.709Z,98727.22
2022-07-31T22:03:43.892Z,98724.06
2022-07-31T22:06:29.339Z,98724.47
2022-07-31T22:08:56.334Z,98732.78
2022-07-31T22:11:23.733Z,98732.41
2022-07-31T22:13:50.678Z,98736.34
2022-07-31T22:16:17.566Z,98739.09
2022-07-31T22:18:44.783Z,98747.75
2022-07-31T22:21:12.082Z,98743.78
2022-07-31T22:23:39.368Z,98740.63
2022-07-31T22:26:06.605Z,98751.28
2022-07-31T22:28:34.445Z,98744.50
2022-07-31T22:31:02.045Z,98746.50
2022-07-31T22:33:28.986Z,98748.88
2022-07-31T22:36:02.517Z,98743.72
2022-07-31T22:38:31.431Z,98748.41
2022-07-31T22:41:02.260Z,98739.25
2022-07-31T22:44:12.551Z,98753.53
2022-07-31T22:46:17.938Z,98751.56
2022-07-31T22:48:46.275Z,98748.44
2022-07-31T22:51:14.665Z,98753.16
2022-07-31T22:53:48.683Z,98756.72
2022-07-31T22:56:16.871Z,98755.91
2022-07-31T22:58:44.865Z,98757.00
2022-07-31T23:01:11.740Z,98763.31
2022-07-31T23:03:38.615Z,98758.56
2022-07-31T23:06:31.249Z,98762.91
2022-07-31T23:08:55.009Z,98757.38
2022-07-31T23:11:23.467Z,98758.97
2022-07-31T23:13:51.733Z,98762.50
2022-07-31T23:16:20.143Z,98767.16
2022-07-31T23:18:47.439Z,98773.06
2022-07-31T23:21:14.310Z,98766.63
2022-07-31T23:23:41.226Z,98766.25
2022-07-31T23:26:21.111Z,98771.72
2022-07-31T23:28:48.993Z,98776.03
2022-07-31T23:31:17.403Z,98773.16
2022-07-31T23:33:45.763Z,98767.72
2022-07-31T23:36:14.146Z,98776.03
2022-07-31T23:38:42.100Z,98767.72
2022-07-31T23:41:09.407Z,98778.72
2022-07-31T23:43:36.610Z,98773.44
2022-07-31T23:46:05.066Z,98787.94
2022-07-31T23:48:34.243Z,98774.47
2022-07-31T23:51:01.138Z,98773.66
2022-07-31T23:53:27.985Z,98772.34
2022-07-31T23:55:54.872Z,98782.59
2022-07-31T23:58:21.706Z,98784.25
